createdAt,value
2022-09-27T00:01:41.128Z,30.60
2022-09-27T00:04:44.191Z,29.80
2022-09-27T00:07:47.083Z,29.60
2022-09-27T00:10:49.948Z,28.90
2022-09-27T00:13:55.651Z,29.50
2022-09-27T00:16:58.556Z,29.60
2022-09-27T00:20:01.913Z,29.60
2022-09-27T00:23:04.804Z,29.00
2022-09-27T00:26:10.732Z,28.60
2022-09-27T00:29:15.313Z,28.00
2022-09-27T00:32:18.597Z,27.00
2022-09-27T00:35:21.432Z,26.60
2022-09-27T00:38:24.540Z,27.10
2022-09-27T00:41:34.090Z,27.60
2022-09-27T00:44:39.910Z,27.10
2022-09-27T00:47:56.471Z,28.40
2022-09-27T00:51:03.787Z,26.10
2022-09-27T00:54:10.216Z,26.80
2022-09-27T00:57:13.397Z,26.60
2022-09-27T01:00:17.153Z,27.70
2022-09-27T01:03:33.125Z,26.70
2022-09-27T01:06:36.227Z,26.50
2022-09-27T01:09:39.635Z,27.30
2022-09-27T01:12:57.981Z,28.50
2022-09-27T01:16:11.465Z,26.60
2022-09-27T01:19:48.144Z,26.70
2022-09-27T01:23:15.947Z,25.80
2022-09-27T01:26:25.085Z,24.70
2022-09-27T01:29:28.238Z,24.50
2022-09-27T01:32:40.801Z,24.00
2022-09-27T01:36:06.173Z,23.60
2022-09-27T01:39:38.457Z,22.40
2022-09-27T01:43:18.043Z,21.80
2022-09-27T01:46:26.041Z,24.10
2022-09-27T01:49:58.226Z,23.30
2022-09-27T01:53:09.872Z,22.90
2022-09-27T01:56:33.265Z,24.60
2022-09-27T01:59:50.807Z,23.90
2022-09-27T02:03:19.396Z,23.90
2022-09-27T02:06:46.926Z,24.00
2022-09-27T02:10:02.754Z,23.30
2022-09-27T02:13:30.840Z,23.50
2022-09-27T02:16:48.884Z,24.50
2022-09-27T02:23:22.946Z,22.50
2022-09-27T02:26:43.890Z,24.70
2022-09-27T02:29:54.568Z,23.40
2022-09-27T02:32:57.481Z,23.30
2022-09-27T02:36:00.392Z,21.50
2022-09-27T02:39:04.573Z,21.90
2022-09-27T02:42:07.856Z,21.60
2022-09-27T02:45:13.905Z,21.60
2022-09-27T02:48:38.073Z,20.20
2022-09-27T02:52:00.528Z,20.40
2022-09-27T03:02:15.545Z,18.80
2022-09-27T03:05:45.789Z,19.80
2022-09-27T03:08:50.387Z,19.10
2022-09-27T03:11:53.652Z,19.20
2022-09-27T03:14:58.614Z,19.00
2022-09-27T03:18:30.457Z,17.50
2022-09-27T03:21:33.401Z,17.70
2022-09-27T03:24:36.604Z,18.20
2022-09-27T03:27:39.525Z,19.10
2022-09-27T03:30:42.744Z,18.50
2022-09-27T03:33:45.902Z,18.60
2022-09-27T03:36:49.488Z,17.80
2022-09-27T03:39:52.264Z,18.40
2022-09-27T03:42:55.492Z,17.30
2022-09-27T03:45:59.049Z,19.00
2022-09-27T03:49:02.047Z,18.30
2022-09-27T03:52:04.907Z,18.90
2022-09-27T03:55:08.060Z,19.40
2022-09-27T03:58:11.206Z,18.70
2022-09-27T04:01:15.671Z,18.90
2022-09-27T04:04:19.559Z,17.90
2022-09-27T04:07:23.660Z,18.70
2022-09-27T04:10:26.965Z,18.10
2022-09-27T04:13:30.094Z,19.60
2022-09-27T04:16:33.912Z,21.20
2022-09-27T04:20:06.864Z,20.50
2022-09-27T04:23:10.374Z,20.90
2022-09-27T04:26:15.149Z,20.70
2022-09-27T04:29:24.556Z,21.00
2022-09-27T04:32:28.439Z,20.70
2022-09-27T04:36:19.277Z,19.90
2022-09-27T04:39:40.456Z,20.30
2022-09-27T04:42:43.508Z,20.10
2022-09-27T04:45:46.724Z,21.40
2022-09-27T04:48:49.646Z,21.60
2022-09-27T04:51:52.482Z,20.90
2022-09-27T04:54:55.373Z,21.00
2022-09-27T04:57:58.903Z,19.40
2022-09-27T05:01:04.352Z,18.10
2022-09-27T05:04:26.337Z,17.70
2022-09-27T05:07:29.837Z,18.40
2022-09-27T05:10:37.088Z,18.20
2022-09-27T05:13:39.932Z,18.40
2022-09-27T05:16:42.838Z,19.80
2022-09-27T05:20:11.600Z,19.90
2022-09-27T05:23:20.228Z,19.30
2022-09-27T05:26:23.348Z,17.80
2022-09-27T05:29:26.422Z,17.00
2022-09-27T05:32:50.226Z,16.60
2022-09-27T05:36:02.475Z,18.30
2022-09-27T05:39:07.217Z,19.10
2022-09-27T05:42:12.250Z,18.70
2022-09-27T05:45:15.432Z,18.20
2022-09-27T05:48:18.406Z,19.00
2022-09-27T05:51:28.568Z,18.50
2022-09-27T05:54:31.840Z,21.10
2022-09-27T05:57:35.481Z,21.40
2022-09-27T06:00:41.773Z,20.00
2022-09-27T06:03:55.417Z,19.80
2022-09-27T06:07:17.581Z,20.20
2022-09-27T06:10:21.006Z,18.90
2022-09-27T06:13:24.001Z,19.70
2022-09-27T06:16:27.868Z,22.00
2022-09-27T06:19:31.080Z,21.30
2022-09-27T06:22:34.112Z,20.40
2022-09-27T06:25:38.524Z,21.30
2022-09-27T06:28:56.834Z,20.40
2022-09-27T06:32:01.615Z,19.60
2022-09-27T06:35:12.971Z,21.50
2022-09-27T06:38:18.362Z,19.40
2022-09-27T06:41:28.651Z,19.90
2022-09-27T06:44:45.827Z,20.30
2022-09-27T06:48:16.180Z,19.70
2022-09-27T06:51:34.260Z,21.30
2022-09-27T06:54:37.483Z,20.00
2022-09-27T06:57:58.962Z,20.60
2022-09-27T07:01:02.586Z,21.10
2022-09-27T07:04:25.137Z,19.50
2022-09-27T07:07:49.477Z,21.20
2022-09-27T07:10:53.705Z,20.60
2022-09-27T07:13:56.838Z,21.20
2022-09-27T07:16:59.829Z,20.70
2022-09-27T07:20:07.993Z,19.60
2022-09-27T07:23:12.492Z,20.00
2022-09-27T07:26:16.268Z,20.00
2022-09-27T07:29:19.872Z,20.40
2022-09-27T07:32:24.449Z,20.60
2022-09-27T07:35:28.840Z,20.40
2022-09-27T07:38:32.664Z,20.40
2022-09-27T07:41:35.562Z,18.50
2022-09-27T07:44:38.555Z,19.00
2022-09-27T07:48:06.683Z,19.20
2022-09-27T07:51:29.999Z,18.00
2022-09-27T07:54:47.027Z,16.30
2022-09-27T07:58:14.991Z,16.60
2022-09-27T08:01:18.432Z,16.30
2022-09-27T08:04:22.309Z,17.30
2022-09-27T08:07:25.771Z,17.10
2022-09-27T08:10:32.493Z,16.60
2022-09-27T08:13:37.801Z,14.50
2022-09-27T08:16:42.019Z,13.50
2022-09-27T08:20:12.380Z,13.50
2022-09-27T08:23:34.098Z,24.50
2022-09-27T08:26:56.157Z,16.40
2022-09-27T08:30:10.835Z,13.50
2022-09-27T08:33:14.774Z,12.20
2022-09-27T08:36:17.903Z,12.60
2022-09-27T08:39:20.960Z,13.00
2022-09-27T08:42:47.332Z,11.60
2022-09-27T08:46:34.427Z,10.70
2022-09-27T08:49:43.918Z,10.70
2022-09-27T08:52:55.113Z,10.80
2022-09-27T08:56:03.477Z,11.20
2022-09-27T08:59:22.141Z,10.50
2022-09-27T09:02:26.538Z,10.40
2022-09-27T09:05:35.934Z,12.10
2022-09-27T09:09:14.259Z,10.80
2022-09-27T09:12:48.401Z,11.40
2022-09-27T09:16:16.077Z,9.70
2022-09-27T09:19:39.381Z,9.30
2022-09-27T09:23:11.702Z,9.40
2022-09-27T09:26:32.134Z,9.80
2022-09-27T09:30:05.398Z,11.10
2022-09-27T09:33:30.059Z,11.20
2022-09-27T09:36:39.067Z,11.60
2022-09-27T09:39:44.537Z,11.20
2022-09-27T09:42:54.731Z,9.70
2022-09-27T09:46:07.553Z,9.70
2022-09-27T09:49:37.278Z,9.90
2022-09-27T09:52:44.934Z,8.50
2022-09-27T09:55:57.922Z,8.60
2022-09-27T09:59:22.838Z,7.70
2022-09-27T10:02:43.155Z,7.70
2022-09-27T10:05:49.269Z,6.90
2022-09-27T10:08:54.937Z,6.90
2022-09-27T10:12:10.184Z,6.80
2022-09-27T10:15:22.752Z,5.90
2022-09-27T10:18:28.398Z,6.20
2022-09-27T10:21:33.884Z,5.30
2022-09-27T10:25:03.469Z,5.40
2022-09-27T10:28:48.087Z,6.20
2022-09-27T10:31:53.985Z,6.30
2022-09-27T10:35:36.918Z,6.60
2022-09-27T10:38:51.675Z,6.40
2022-09-27T10:41:59.898Z,8.80
2022-09-27T10:45:29.514Z,6.00
2022-09-27T10:48:37.799Z,5.00
2022-09-27T10:51:40.954Z,5.40
2022-09-27T10:54:55.057Z,4.50
2022-09-27T10:57:58.139Z,4.70
2022-09-27T11:01:12.645Z,4.60
2022-09-27T11:04:38.605Z,3.70
2022-09-27T11:07:50.685Z,4.30
2022-09-27T11:11:13.861Z,4.40
2022-09-27T11:14:19.929Z,3.80
2022-09-27T11:17:32.630Z,4.00
2022-09-27T11:21:01.670Z,4.10
2022-09-27T11:24:15.604Z,3.90
2022-09-27T11:27:41.829Z,5.00
2022-09-27T11:31:08.605Z,7.60
2022-09-27T11:34:57.690Z,5.20
2022-09-27T11:38:48.024Z,6.00
2022-09-27T11:42:16.527Z,6.20
2022-09-27T11:46:23.904Z,6.80
2022-09-27T11:49:42.782Z,6.00
2022-09-27T11:52:59.813Z,4.00
2022-09-27T11:56:34.104Z,3.90
2022-09-27T11:59:43.688Z,4.30
2022-09-27T12:03:08.585Z,3.50
2022-09-27T12:06:13.448Z,4.40
2022-09-27T12:09:22.486Z,3.90
2022-09-27T12:12:31.639Z,3.90
2022-09-27T12:15:40.475Z,4.90
2022-09-27T12:18:51.341Z,4.30
2022-09-27T12:22:53.934Z,3.80
2022-09-27T12:25:58.069Z,3.70
2022-09-27T12:29:15.388Z,3.50
2022-09-27T12:32:32.831Z,3.50
2022-09-27T12:35:45.131Z,3.00
2022-09-27T12:39:01.961Z,3.70
2022-09-27T12:42:17.953Z,3.60
2022-09-27T12:45:37.484Z,3.50
2022-09-27T12:49:10.265Z,4.10
2022-09-27T12:52:23.487Z,4.30
2022-09-27T12:56:10.694Z,4.60
2022-09-27T12:59:17.619Z,6.20
2022-09-27T13:03:04.003Z,5.90
2022-09-27T13:06:23.783Z,5.60
2022-09-27T13:09:50.843Z,5.00
2022-09-27T13:12:55.706Z,4.40
2022-09-27T13:16:01.406Z,4.60
2022-09-27T13:19:47.963Z,4.80
2022-09-27T13:22:51.930Z,6.20
2022-09-27T13:26:43.372Z,5.30
2022-09-27T13:30:19.178Z,6.70
2022-09-27T13:33:28.876Z,6.40
2022-09-27T13:36:34.670Z,6.90
2022-09-27T13:39:40.806Z,6.80
2022-09-27T13:43:13.335Z,6.80
2022-09-27T13:46:29.641Z,7.20
2022-09-27T13:49:42.106Z,7.30
2022-09-27T13:52:55.955Z,8.20
2022-09-27T13:56:00.481Z,9.50
2022-09-27T13:59:19.118Z,9.30
2022-09-27T14:02:36.461Z,8.90
2022-09-27T14:05:48.803Z,8.30
2022-09-27T14:12:08.343Z,5.80
2022-09-27T14:15:28.572Z,5.60
2022-09-27T14:18:36.314Z,3.50
2022-09-27T14:21:40.296Z,1.70
2022-09-27T14:24:54.012Z,2.20
2022-09-27T14:28:01.015Z,2.00
2022-09-27T14:31:23.144Z,2.30
2022-09-27T14:34:45.881Z,3.00
2022-09-27T14:37:52.867Z,3.60
2022-09-27T14:41:00.679Z,4.00
2022-09-27T14:44:04.437Z,3.50
2022-09-27T14:47:10.066Z,2.60
2022-09-27T14:50:29.497Z,2.90
2022-09-27T14:53:36.718Z,2.90
2022-09-27T14:56:40.026Z,3.10
2022-09-27T14:59:46.203Z,3.10
2022-09-27T15:02:55.446Z,3.50
2022-09-27T15:06:01.348Z,4.00
2022-09-27T15:09:07.147Z,4.50
2022-09-27T15:12:14.345Z,4.30
2022-09-27T15:15:22.266Z,3.40
2022-09-27T15:18:33.261Z,3.60
2022-09-27T15:21:37.663Z,3.50
2022-09-27T15:24:46.785Z,3.70
2022-09-27T15:27:55.117Z,3.60
2022-09-27T15:30:58.736Z,3.70
2022-09-27T15:34:07.590Z,3.80
2022-09-27T15:37:24.263Z,4.40
2022-09-27T15:40:53.083Z,4.60
2022-09-27T15:43:56.095Z,4.40
2022-09-27T15:46:58.993Z,3.80
2022-09-27T15:50:16.854Z,6.40
2022-09-27T15:53:34.662Z,4.80
2022-09-27T15:56:40.113Z,5.30
2022-09-27T15:59:43.442Z,6.00
2022-09-27T16:02:46.940Z,5.60
2022-09-27T16:05:49.866Z,4.50
2022-09-27T16:08:52.800Z,6.70
2022-09-27T16:11:55.747Z,12.20
2022-09-27T16:14:58.622Z,12.70
2022-09-27T16:18:01.634Z,8.70
2022-09-27T16:21:04.991Z,7.30
2022-09-27T16:24:12.305Z,6.70
2022-09-27T16:27:27.478Z,7.20
2022-09-27T16:30:31.300Z,6.20
2022-09-27T16:33:41.073Z,7.90
2022-09-27T16:36:43.998Z,7.90
2022-09-27T16:39:47.015Z,8.30
2022-09-27T16:42:50.274Z,9.90
2022-09-27T16:45:53.242Z,10.90
2022-09-27T16:48:56.289Z,11.40
2022-09-27T16:52:03.356Z,13.20
2022-09-27T16:55:11.028Z,12.50
2022-09-27T16:58:14.547Z,12.00
2022-09-27T17:01:17.731Z,11.60
2022-09-27T17:04:21.047Z,11.10
2022-09-27T17:07:24.501Z,12.90
2022-09-27T17:10:27.657Z,12.70
2022-09-27T17:13:30.575Z,15.00
2022-09-27T17:16:33.559Z,15.10
2022-09-27T17:19:39.296Z,14.90
2022-09-27T17:22:42.257Z,15.90
2022-09-27T17:25:45.210Z,17.60
2022-09-27T17:28:50.816Z,17.70
2022-09-27T17:31:53.882Z,18.00
2022-09-27T17:35:00.000Z,19.00
2022-09-27T17:38:03.059Z,20.20
2022-09-27T17:41:12.096Z,20.70
2022-09-27T17:44:18.411Z,20.80
2022-09-27T17:47:40.144Z,21.50
2022-09-27T17:50:46.850Z,23.60
2022-09-27T17:53:50.501Z,24.20
2022-09-27T17:56:54.121Z,24.90
2022-09-27T17:59:58.061Z,25.60
2022-09-27T18:03:01.558Z,24.00
2022-09-27T18:06:10.662Z,23.70
2022-09-27T18:09:16.564Z,23.00
2022-09-27T18:12:19.688Z,21.90
2022-09-27T18:15:23.415Z,23.10
2022-09-27T18:18:28.002Z,22.40
2022-09-27T18:21:31.887Z,23.90
2022-09-27T18:24:34.979Z,25.20
2022-09-27T18:27:40.517Z,26.20
2022-09-27T18:30:44.469Z,26.90
2022-09-27T18:33:48.663Z,27.10
2022-09-27T18:36:52.021Z,25.90
2022-09-27T18:39:55.801Z,25.30
2022-09-27T18:42:58.748Z,24.50
2022-09-27T18:46:18.072Z,23.10
2022-09-27T18:49:33.647Z,23.20
2022-09-27T18:52:37.055Z,22.40
2022-09-27T18:55:41.706Z,22.30
2022-09-27T18:58:45.607Z,21.50
2022-09-27T19:01:48.997Z,21.00
2022-09-27T19:04:52.301Z,20.70
2022-09-27T19:07:55.714Z,23.10
2022-09-27T19:11:10.535Z,21.10
2022-09-27T19:14:19.664Z,21.40
2022-09-27T19:17:22.714Z,21.10
2022-09-27T19:20:25.992Z,23.70
2022-09-27T19:23:30.024Z,22.90
2022-09-27T19:26:32.980Z,22.60
2022-09-27T19:29:37.027Z,20.90
2022-09-27T19:32:40.154Z,21.10
2022-09-27T19:35:43.092Z,19.30
2022-09-27T19:38:47.035Z,17.00
2022-09-27T19:41:49.933Z,16.80
2022-09-27T19:44:52.919Z,18.30
2022-09-27T19:47:56.307Z,16.70
2022-09-27T19:51:01.589Z,15.30
2022-09-27T19:54:04.799Z,13.10
2022-09-27T19:57:07.684Z,11.70
2022-09-27T20:00:12.027Z,10.90
2022-09-27T20:03:15.137Z,10.30
2022-09-27T20:06:20.133Z,10.00
2022-09-27T20:09:25.258Z,9.30
2022-09-27T20:12:28.177Z,8.80
2022-09-27T20:15:31.238Z,10.40
2022-09-27T20:18:34.765Z,10.80
2022-09-27T20:21:38.262Z,10.70
2022-09-27T20:24:41.226Z,10.40
2022-09-27T20:27:44.256Z,10.80
2022-09-27T20:30:59.457Z,10.30
2022-09-27T20:34:03.477Z,11.80
2022-09-27T20:37:07.589Z,11.40
2022-09-27T20:40:10.483Z,11.50
2022-09-27T20:43:13.319Z,13.10
2022-09-27T20:46:18.309Z,11.30
2022-09-27T20:49:22.127Z,11.40
2022-09-27T20:52:24.944Z,9.70
2022-09-27T20:55:27.800Z,9.40
2022-09-27T20:58:32.162Z,9.60
2022-09-27T21:01:35.026Z,9.40
2022-09-27T21:04:37.944Z,8.70
2022-09-27T21:07:41.574Z,8.50
2022-09-27T21:10:47.094Z,8.40
2022-09-27T21:13:54.522Z,8.70
2022-09-27T21:17:01.691Z,9.00
2022-09-27T21:20:05.257Z,9.90
2022-09-27T21:23:08.213Z,8.60
2022-09-27T21:26:16.918Z,8.80
2022-09-27T21:29:21.031Z,9.10
2022-09-27T21:32:23.935Z,9.40
2022-09-27T21:35:26.949Z,9.50
2022-09-27T21:38:31.282Z,9.60
2022-09-27T21:41:34.779Z,9.60
2022-09-27T21:44:37.654Z,9.10
2022-09-27T21:47:40.682Z,8.60
2022-09-27T21:50:47.101Z,10.10
2022-09-27T21:53:52.562Z,10.30
2022-09-27T21:56:55.569Z,9.80
2022-09-27T21:59:58.495Z,9.90
2022-09-27T22:03:01.565Z,10.00
2022-09-27T22:06:06.167Z,9.00
2022-09-27T22:09:13.746Z,9.50
2022-09-27T22:12:16.765Z,8.40
2022-09-27T22:15:19.739Z,8.80
2022-09-27T22:18:22.833Z,9.10
2022-09-27T22:21:37.129Z,8.00
2022-09-27T22:24:39.998Z,8.30
2022-09-27T22:27:42.970Z,7.90
2022-09-27T22:30:45.846Z,8.60
2022-09-27T22:33:57.057Z,8.40
2022-09-27T22:37:00.932Z,8.20
2022-09-27T22:40:05.332Z,9.20
2022-09-27T22:43:08.207Z,9.70
2022-09-27T22:46:11.409Z,10.10
2022-09-27T22:49:14.532Z,9.80
2022-09-27T22:52:17.900Z,9.70
2022-09-27T22:55:20.742Z,10.90
2022-09-27T22:58:24.078Z,10.20
2022-09-27T23:01:26.950Z,10.20
2022-09-27T23:04:29.782Z,9.70
2022-09-27T23:07:32.637Z,9.20
2022-09-27T23:10:36.179Z,9.90
2022-09-27T23:13:41.414Z,9.40
2022-09-27T23:16:44.336Z,9.40
2022-09-27T23:19:47.157Z,9.90
2022-09-27T23:22:50.303Z,8.70
2022-09-27T23:26:00.603Z,8.00
2022-09-27T23:29:03.741Z,8.30
2022-09-27T23:32:06.632Z,7.90
2022-09-27T23:35:09.649Z,8.50
2022-09-27T23:38:14.666Z,8.40
2022-09-27T23:41:18.695Z,7.80
2022-09-27T23:44:22.826Z,8.40
2022-09-27T23:47:25.708Z,9.80
2022-09-27T23:50:28.535Z,9.20
2022-09-27T23:53:31.822Z,8.90
2022-09-27T23:56:34.673Z,9.20
2022-09-27T23:59:38.499Z,9.40
